Flight Track Log - Related Links

Times and Time Zones

All times are in EDT time to prevent confusion due to time zone crossing. See the GJS3618 flight status page for this flight to view local times or setup timezone preferences in your user account.

Time Position Orientation Groundspeed Altitude Reporting Facility
EDT Latitude Longitude Course Direction KTS MPH feet Rate Location/Type
Fri 19:19:36 41.9333 -87.9333 261° West 186 214 2,400  Level Chicago TRACON
Fri 19:20:37 41.9167 -88.0167 255° West 249 287 4,500 1,236 Climbing Chicago TRACON
Fri 19:21:00 41.9333 -88.2979 270° West  Level FlightAware Approximate
Fri 19:22:00 41.9167 -88.4307 270° West  Level FlightAware Approximate
Fri 19:22:55 41.8958 -88.2214 262° West 269 310 6,500  Level Chicago Center
Fri 19:23:00 41.9052 -88.5651 261° West  Level FlightAware Approximate
Fri 19:23:57 41.8922 -88.3444 268° West 276 318 10,300  Level Chicago Center
Fri 19:24:00 41.8894 -88.6991 261° West  Level FlightAware Approximate
Fri 19:24:58 41.8864 -88.4589 266° West 302 348 12,000  Level Chicago Center
Fri 19:26:00 41.8806 -88.5892 267° West 349 402 13,600 1,512 Climbing Chicago Center
Fri 19:27:01 41.8642 -88.7292 261° West 380 437 15,100 1,512 Climbing Chicago Center
Fri 19:28:03 41.8447 -88.8786 260° West 405 466 16,700 1,756 Climbing Chicago Center
Fri 19:29:04 41.8217 -89.0594 260° West 415 478 18,700 1,854 Climbing Chicago Center
Fri 19:30:06 41.8061 -89.2147 262° West 422 486 20,500 1,694 Climbing Chicago Center
Fri 19:31:08 41.7889 -89.3686 262° West 422 486 22,200 1,561 Climbing Chicago Center
Fri 19:32:09 41.7728 -89.5239 262° West 424 488 23,700 1,463 Climbing Chicago Center
Fri 19:33:11 41.7564 -89.6775 262° West 430 495 25,200 1,355 Climbing Chicago Center
Fri 19:34:13 41.7403 -89.8358 262° West 432 497 26,500 1,463 Climbing Chicago Center
Fri 19:35:14 41.7372 -90.0319 269° West 440 506 28,200 1,415 Climbing Chicago Center
Fri 19:36:16 41.7319 -90.1989 268° West 446 513 29,400 1,016 Climbing Chicago Center
Fri 19:37:18 41.7272 -90.3672 268° West 451 519 30,300 1,024 Climbing Chicago Center
Fri 19:38:19 41.7231 -90.5375 268° West 458 527 31,500 1,171 Climbing Chicago Center
Fri 19:39:21 41.7183 -90.7228 268° West 458 527 32,700 1,171 Climbing Chicago Center
Fri 19:40:22 41.7136 -90.8942 268° West 462 532 33,900 634 Climbing Chicago Center
Fri 19:41:24 41.7086 -91.0658 268° West 463 533 34,000 49 Climbing Chicago Center
Fri 19:42:25 41.7033 -91.2453 268° West 480 552 34,000  Level Chicago Center
Fri 19:43:27 41.6969 -91.4256 267° West 487 560 34,000  Level Chicago Center
Fri 19:44:29 41.6914 -91.6033 268° West 483 556 34,000  Level Chicago Center
Fri 19:45:30 41.6836 -91.8158 267° West 481 554 34,000  Level Chicago Center
Fri 19:46:32 41.6769 -91.9939 267° West 480 552 34,000  Level Chicago Center
Fri 19:47:34 41.6703 -92.1731 267° West 484 557 34,000  Level Chicago Center
Fri 19:48:35 41.6625 -92.3514 267° West 483 556 34,000  Level Chicago Center
Fri 19:49:37 41.6544 -92.5308 267° West 487 560 34,000  Level Chicago Center
Fri 19:50:39 41.6464 -92.7106 267° West 488 562 34,000  Level Chicago Center
Fri 19:51:40 41.6383 -92.8919 267° West 486 559 34,000  Level Chicago Center
Fri 19:52:42 41.6278 -93.1050 266° West 484 557 34,000  Level Chicago Center
Fri 19:53:44 41.6200 -93.2806 267° West 479 551 34,000  Level Chicago Center
Fri 19:54:45 41.6108 -93.4525 266° West 473 544 34,000  Level Chicago Center
Fri 19:56:01 41.6017 -93.6503 267° West 458 527 34,000  Level Minneapolis Center
Fri 19:57:02 41.5944 -93.7858 266° West 459 528 34,000 -927 Level Minneapolis Center
Fri 19:58:04 41.5794 -94.0244 265° West 464 534 32,100 -2,439 Descending Minneapolis Center
Fri 19:59:05 41.5683 -94.1939 265° West 465 535 29,000 -3,024 Descending Minneapolis Center
Fri 20:00:07 41.5622 -94.3486 267° West 443 510 25,900 -3,024 Descending Minneapolis Center
Fri 20:01:08 41.5542 -94.5086 266° West 436 502 22,800 -3,049 Descending Minneapolis Center
Fri 20:02:09 41.5431 -94.6656 265° West 426 490 19,700 -3,024 Descending Minneapolis Center
Fri 20:03:11 41.5344 -94.8153 266° West 411 473 16,600 -1,897 Descending Minneapolis Center
Fri 20:04:06 41.5378 -94.9636 272° West 359 413 16,000 -976 Descending Minneapolis Center
Fri 20:05:14 41.5164 -95.0969 258° West 334 384 14,600 -1,884 Descending Minneapolis Center
Fri 20:06:07 41.5092 -95.2042 265° West 290 334 12,200 -2,390 Descending Minneapolis Center
Fri 20:07:17 41.4886 -95.3114 256° West 297 342 9,700 -2,083 Descending Minneapolis Center
Fri 20:08:08 41.4900 -95.4042 271° West 254 292 8,000 -1,661 Descending Minneapolis Center
Fri 20:09:09 41.4897 -95.4906 270° West 227 261 6,600 -1,279 Descending Minneapolis Center
Fri 20:10:10 41.4847 -95.5719 265° West 216 249 5,400 -1,240 Descending Minneapolis Center
Fri 20:11:10 41.4736 -95.6511 259° West 215 247 4,100 -1,190 Descending Minneapolis Center
Fri 20:12:11 41.4603 -95.7361 258° West 218 251 3,000 -541 Descending Minneapolis Center
Fri 20:13:12 41.4469 -95.8158 257° West 217 250 3,000 -99 Level Minneapolis Center
Fri 20:14:12 41.4347 -95.8839 257° West 186 214 2,800 -298 Descending Minneapolis Center
Fri 20:15:13 41.3939 -95.8997 196° South 153 176 2,400 -496 Descending Minneapolis Center
Fri 20:16:13 41.3583 -95.9011 182° South 115 132 1,800 -600 Descending Minneapolis Center

Login

Don't have an account? Register now (free) for customized features, flight alerts, and more!